sensor_id;sensor_type;location;lat;lon;timestamp;P1;durP1;ratioP1;P2;durP2;ratioP2
17424;SDS011;8830;50.978;5.058;2022-08-21T00:01:13;3.40;;;2.60;;
17424;SDS011;8830;50.978;5.058;2022-08-21T00:03:42;4.70;;;3.30;;
17424;SDS011;8830;50.978;5.058;2022-08-21T00:06:12;5.43;;;2.60;;
17424;SDS011;8830;50.978;5.058;2022-08-21T00:08:39;5.67;;;3.30;;
17424;SDS011;8830;50.978;5.058;2022-08-21T00:11:07;3.57;;;3.07;;
17424;SDS011;8830;50.978;5.058;2022-08-21T00:13:35;4.80;;;3.17;;
17424;SDS011;8830;50.978;5.058;2022-08-21T00:16:04;4.00;;;3.07;;
17424;SDS011;8830;50.978;5.058;2022-08-21T00:18:33;4.80;;;3.10;;
17424;SDS011;8830;50.978;5.058;2022-08-21T00:21:03;7.30;;;3.00;;
17424;SDS011;8830;50.978;5.058;2022-08-21T00:23:34;3.80;;;3.00;;
17424;SDS011;8830;50.978;5.058;2022-08-21T00:26:02;4.37;;;2.83;;
17424;SDS011;8830;50.978;5.058;2022-08-21T00:28:30;5.77;;;2.80;;
17424;SDS011;8830;50.978;5.058;2022-08-21T00:30:57;4.90;;;2.80;;
17424;SDS011;8830;50.978;5.058;2022-08-21T00:33:28;5.27;;;2.57;;
17424;SDS011;8830;50.978;5.058;2022-08-21T00:35:57;6.63;;;2.73;;
17424;SDS011;8830;50.978;5.058;2022-08-21T00:38:24;5.73;;;2.90;;
17424;SDS011;8830;50.978;5.058;2022-08-21T00:40:53;6.53;;;3.00;;
17424;SDS011;8830;50.978;5.058;2022-08-21T00:43:25;5.47;;;2.53;;
17424;SDS011;8830;50.978;5.058;2022-08-21T00:45:55;7.03;;;2.43;;
17424;SDS011;8830;50.978;5.058;2022-08-21T00:48:23;4.30;;;2.50;;
17424;SDS011;8830;50.978;5.058;2022-08-21T00:50:53;7.00;;;2.80;;
17424;SDS011;8830;50.978;5.058;2022-08-21T00:53:24;9.20;;;2.80;;
17424;SDS011;8830;50.978;5.058;2022-08-21T00:55:53;7.40;;;2.90;;
17424;SDS011;8830;50.978;5.058;2022-08-21T00:58:22;5.77;;;2.67;;
17424;SDS011;8830;50.978;5.058;2022-08-21T01:00:50;6.17;;;2.70;;
17424;SDS011;8830;50.978;5.058;2022-08-21T01:03:19;5.97;;;2.87;;
17424;SDS011;8830;50.978;5.058;2022-08-21T01:05:48;5.37;;;2.60;;
17424;SDS011;8830;50.978;5.058;2022-08-21T01:08:17;6.60;;;2.43;;
17424;SDS011;8830;50.978;5.058;2022-08-21T01:10:47;4.90;;;2.87;;
17424;SDS011;8830;50.978;5.058;2022-08-21T01:13:15;3.03;;;2.50;;
17424;SDS011;8830;50.978;5.058;2022-08-21T01:15:46;4.07;;;2.60;;
17424;SDS011;8830;50.978;5.058;2022-08-21T01:18:15;6.57;;;3.40;;
17424;SDS011;8830;50.978;5.058;2022-08-21T01:23:23;7.93;;;3.43;;
17424;SDS011;8830;50.978;5.058;2022-08-21T01:25:50;4.30;;;2.67;;
17424;SDS011;8830;50.978;5.058;2022-08-21T01:28:17;5.40;;;2.83;;
17424;SDS011;8830;50.978;5.058;2022-08-21T01:30:48;5.40;;;2.40;;
17424;SDS011;8830;50.978;5.058;2022-08-21T01:33:17;4.87;;;2.57;;
17424;SDS011;8830;50.978;5.058;2022-08-21T01:35:46;7.47;;;3.50;;
17424;SDS011;8830;50.978;5.058;2022-08-21T01:38:15;5.20;;;2.60;;
17424;SDS011;8830;50.978;5.058;2022-08-21T01:40:43;4.00;;;2.80;;
17424;SDS011;8830;50.978;5.058;2022-08-21T01:43:11;4.70;;;2.80;;
17424;SDS011;8830;50.978;5.058;2022-08-21T01:45:38;7.90;;;3.10;;
17424;SDS011;8830;50.978;5.058;2022-08-21T01:48:07;4.80;;;2.73;;
17424;SDS011;8830;50.978;5.058;2022-08-21T01:50:37;8.07;;;3.30;;
17424;SDS011;8830;50.978;5.058;2022-08-21T01:53:04;6.13;;;3.00;;
17424;SDS011;8830;50.978;5.058;2022-08-21T01:55:35;5.63;;;3.00;;
17424;SDS011;8830;50.978;5.058;2022-08-21T01:58:02;7.93;;;3.10;;
17424;SDS011;8830;50.978;5.058;2022-08-21T02:00:29;3.77;;;2.80;;
17424;SDS011;8830;50.978;5.058;2022-08-21T02:02:56;5.73;;;3.20;;
17424;SDS011;8830;50.978;5.058;2022-08-21T02:05:23;4.87;;;3.00;;
17424;SDS011;8830;50.978;5.058;2022-08-21T02:07:51;8.40;;;3.07;;
17424;SDS011;8830;50.978;5.058;2022-08-21T02:10:21;5.67;;;2.93;;
17424;SDS011;8830;50.978;5.058;2022-08-21T02:12:52;3.97;;;2.87;;
17424;SDS011;8830;50.978;5.058;2022-08-21T02:15:20;7.37;;;3.23;;
17424;SDS011;8830;50.978;5.058;2022-08-21T02:17:49;6.87;;;3.00;;
17424;SDS011;8830;50.978;5.058;2022-08-21T02:20:20;6.47;;;3.33;;
17424;SDS011;8830;50.978;5.058;2022-08-21T02:22:49;4.20;;;2.83;;
17424;SDS011;8830;50.978;5.058;2022-08-21T02:25:16;8.53;;;3.27;;
17424;SDS011;8830;50.978;5.058;2022-08-21T02:27:44;3.60;;;2.70;;
17424;SDS011;8830;50.978;5.058;2022-08-21T02:30:20;5.33;;;2.43;;
17424;SDS011;8830;50.978;5.058;2022-08-21T02:32:50;6.10;;;2.83;;
17424;SDS011;8830;50.978;5.058;2022-08-21T02:35:18;4.00;;;2.53;;
17424;SDS011;8830;50.978;5.058;2022-08-21T02:37:47;4.70;;;2.60;;
17424;SDS011;8830;50.978;5.058;2022-08-21T02:40:18;4.60;;;2.83;;
17424;SDS011;8830;50.978;5.058;2022-08-21T02:42:47;10.37;;;2.93;;
17424;SDS011;8830;50.978;5.058;2022-08-21T02:45:16;10.00;;;3.50;;
17424;SDS011;8830;50.978;5.058;2022-08-21T02:47:46;4.97;;;2.97;;
17424;SDS011;8830;50.978;5.058;2022-08-21T02:50:16;6.07;;;3.10;;
17424;SDS011;8830;50.978;5.058;2022-08-21T02:52:45;7.53;;;3.20;;
17424;SDS011;8830;50.978;5.058;2022-08-21T02:55:13;5.97;;;2.93;;
17424;SDS011;8830;50.978;5.058;2022-08-21T02:57:40;5.37;;;2.60;;
17424;SDS011;8830;50.978;5.058;2022-08-21T03:00:08;5.30;;;3.10;;
17424;SDS011;8830;50.978;5.058;2022-08-21T03:02:38;6.60;;;3.17;;
17424;SDS011;8830;50.978;5.058;2022-08-21T03:05:05;6.10;;;3.20;;
17424;SDS011;8830;50.978;5.058;2022-08-21T03:07:35;4.97;;;2.90;;
17424;SDS011;8830;50.978;5.058;2022-08-21T03:10:02;5.30;;;2.67;;
17424;SDS011;8830;50.978;5.058;2022-08-21T03:12:30;4.93;;;2.83;;
17424;SDS011;8830;50.978;5.058;2022-08-21T03:14:57;7.87;;;3.77;;
17424;SDS011;8830;50.978;5.058;2022-08-21T03:17:25;5.07;;;2.83;;
17424;SDS011;8830;50.978;5.058;2022-08-21T03:19:54;4.40;;;2.90;;
17424;SDS011;8830;50.978;5.058;2022-08-21T03:22:22;6.80;;;2.90;;
17424;SDS011;8830;50.978;5.058;2022-08-21T03:24:49;6.67;;;3.00;;
17424;SDS011;8830;50.978;5.058;2022-08-21T03:27:19;8.97;;;2.73;;
17424;SDS011;8830;50.978;5.058;2022-08-21T03:29:51;6.83;;;3.10;;
17424;SDS011;8830;50.978;5.058;2022-08-21T03:32:19;6.83;;;3.23;;
17424;SDS011;8830;50.978;5.058;2022-08-21T03:34:47;4.70;;;2.90;;
17424;SDS011;8830;50.978;5.058;2022-08-21T03:37:17;6.10;;;4.17;;
17424;SDS011;8830;50.978;5.058;2022-08-21T03:39:44;6.43;;;3.07;;
17424;SDS011;8830;50.978;5.058;2022-08-21T03:42:11;4.43;;;2.80;;
17424;SDS011;8830;50.978;5.058;2022-08-21T03:44:38;6.87;;;3.53;;
17424;SDS011;8830;50.978;5.058;2022-08-21T03:47:07;4.63;;;3.03;;
17424;SDS011;8830;50.978;5.058;2022-08-21T03:49:36;6.73;;;3.00;;
17424;SDS011;8830;50.978;5.058;2022-08-21T03:52:04;5.80;;;3.10;;
17424;SDS011;8830;50.978;5.058;2022-08-21T03:54:32;6.90;;;3.23;;
17424;SDS011;8830;50.978;5.058;2022-08-21T03:57:00;7.63;;;3.27;;
17424;SDS011;8830;50.978;5.058;2022-08-21T03:59:28;8.67;;;3.57;;
17424;SDS011;8830;50.978;5.058;2022-08-21T04:01:56;5.57;;;3.47;;
17424;SDS011;8830;50.978;5.058;2022-08-21T04:04:25;4.37;;;3.00;;
17424;SDS011;8830;50.978;5.058;2022-08-21T04:06:53;5.93;;;3.33;;
17424;SDS011;8830;50.978;5.058;2022-08-21T04:09:21;5.97;;;3.10;;
17424;SDS011;8830;50.978;5.058;2022-08-21T04:11:50;4.93;;;2.90;;
17424;SDS011;8830;50.978;5.058;2022-08-21T04:14:17;4.43;;;3.53;;
17424;SDS011;8830;50.978;5.058;2022-08-21T04:16:44;5.03;;;3.43;;
17424;SDS011;8830;50.978;5.058;2022-08-21T04:19:13;7.07;;;3.53;;
17424;SDS011;8830;50.978;5.058;2022-08-21T04:21:42;4.93;;;3.07;;
17424;SDS011;8830;50.978;5.058;2022-08-21T04:24:10;5.63;;;3.90;;
17424;SDS011;8830;50.978;5.058;2022-08-21T04:26:39;6.60;;;3.40;;
17424;SDS011;8830;50.978;5.058;2022-08-21T04:29:07;5.70;;;3.60;;
17424;SDS011;8830;50.978;5.058;2022-08-21T04:31:34;9.00;;;3.80;;
17424;SDS011;8830;50.978;5.058;2022-08-21T04:34:03;6.27;;;3.33;;
17424;SDS011;8830;50.978;5.058;2022-08-21T04:36:40;6.77;;;3.37;;
17424;SDS011;8830;50.978;5.058;2022-08-21T04:47:34;7.10;;;4.53;;
17424;SDS011;8830;50.978;5.058;2022-08-21T04:50:43;5.87;;;3.20;;
17424;SDS011;8830;50.978;5.058;2022-08-21T04:57:36;5.43;;;3.53;;
17424;SDS011;8830;50.978;5.058;2022-08-21T05:00:48;5.70;;;3.07;;
17424;SDS011;8830;50.978;5.058;2022-08-21T05:06:22;6.10;;;2.90;;
17424;SDS011;8830;50.978;5.058;2022-08-21T05:12:35;6.20;;;3.20;;
17424;SDS011;8830;50.978;5.058;2022-08-21T05:15:53;6.87;;;2.90;;
17424;SDS011;8830;50.978;5.058;2022-08-21T05:37:32;4.87;;;2.27;;
17424;SDS011;8830;50.978;5.058;2022-08-21T05:40:41;4.77;;;2.03;;
17424;SDS011;8830;50.978;5.058;2022-08-21T05:43:55;4.53;;;2.50;;
17424;SDS011;8830;50.978;5.058;2022-08-21T06:04:00;3.30;;;1.42;;
17424;SDS011;8830;50.978;5.058;2022-08-21T06:06:36;3.28;;;1.80;;
17424;SDS011;8830;50.978;5.058;2022-08-21T06:09:07;3.88;;;1.85;;
17424;SDS011;8830;50.978;5.058;2022-08-21T06:11:47;2.72;;;1.70;;
17424;SDS011;8830;50.978;5.058;2022-08-21T06:14:21;5.00;;;1.90;;
17424;SDS011;8830;50.978;5.058;2022-08-21T06:17:36;3.22;;;2.10;;
17424;SDS011;8830;50.978;5.058;2022-08-21T06:20:37;4.63;;;1.60;;
17424;SDS011;8830;50.978;5.058;2022-08-21T06:23:22;4.90;;;1.67;;
17424;SDS011;8830;50.978;5.058;2022-08-21T06:39:14;5.07;;;1.88;;
17424;SDS011;8830;50.978;5.058;2022-08-21T06:41:56;4.30;;;1.80;;
17424;SDS011;8830;50.978;5.058;2022-08-21T07:13:58;2.95;;;1.67;;
17424;SDS011;8830;50.978;5.058;2022-08-21T07:17:29;6.47;;;2.25;;
17424;SDS011;8830;50.978;5.058;2022-08-21T07:20:11;4.03;;;1.90;;
17424;SDS011;8830;50.978;5.058;2022-08-21T07:23:09;4.10;;;1.60;;
17424;SDS011;8830;50.978;5.058;2022-08-21T07:48:38;4.25;;;1.80;;
17424;SDS011;8830;50.978;5.058;2022-08-21T07:54:45;4.50;;;1.50;;
17424;SDS011;8830;50.978;5.058;2022-08-21T07:57:18;2.38;;;1.30;;
17424;SDS011;8830;50.978;5.058;2022-08-21T07:59:46;4.85;;;2.10;;
17424;SDS011;8830;50.978;5.058;2022-08-21T08:05:04;3.75;;;1.52;;
17424;SDS011;8830;50.978;5.058;2022-08-21T08:08:00;10.20;;;1.92;;
17424;SDS011;8830;50.978;5.058;2022-08-21T08:14:21;5.90;;;1.98;;
17424;SDS011;8830;50.978;5.058;2022-08-21T08:17:06;4.40;;;1.40;;
17424;SDS011;8830;50.978;5.058;2022-08-21T08:19:56;3.80;;;1.83;;
17424;SDS011;8830;50.978;5.058;2022-08-21T08:22:29;3.58;;;1.85;;
17424;SDS011;8830;50.978;5.058;2022-08-21T08:25:17;4.60;;;1.95;;
17424;SDS011;8830;50.978;5.058;2022-08-21T08:30:30;4.72;;;1.67;;
17424;SDS011;8830;50.978;5.058;2022-08-21T08:33:21;2.97;;;1.48;;
17424;SDS011;8830;50.978;5.058;2022-08-21T08:35:53;3.13;;;1.42;;
17424;SDS011;8830;50.978;5.058;2022-08-21T08:38:27;4.93;;;2.20;;
17424;SDS011;8830;50.978;5.058;2022-08-21T08:44:14;3.85;;;1.30;;
17424;SDS011;8830;50.978;5.058;2022-08-21T09:03:25;4.45;;;1.27;;
17424;SDS011;8830;50.978;5.058;2022-08-21T09:06:21;4.75;;;1.73;;
17424;SDS011;8830;50.978;5.058;2022-08-21T09:09:30;4.60;;;1.55;;
17424;SDS011;8830;50.978;5.058;2022-08-21T09:12:32;2.95;;;1.40;;
17424;SDS011;8830;50.978;5.058;2022-08-21T09:15:11;2.83;;;1.20;;
17424;SDS011;8830;50.978;5.058;2022-08-21T09:20:56;4.35;;;1.25;;
17424;SDS011;8830;50.978;5.058;2022-08-21T09:23:43;3.83;;;1.02;;
17424;SDS011;8830;50.978;5.058;2022-08-21T09:26:18;2.88;;;1.20;;
17424;SDS011;8830;50.978;5.058;2022-08-21T09:28:56;3.28;;;1.10;;
17424;SDS011;8830;50.978;5.058;2022-08-21T09:31:40;2.47;;;1.15;;
17424;SDS011;8830;50.978;5.058;2022-08-21T09:34:23;6.30;;;1.65;;
17424;SDS011;8830;50.978;5.058;2022-08-21T09:36:55;1.92;;;1.05;;
17424;SDS011;8830;50.978;5.058;2022-08-21T09:39:27;2.42;;;1.30;;
17424;SDS011;8830;50.978;5.058;2022-08-21T09:42:02;3.13;;;1.35;;
17424;SDS011;8830;50.978;5.058;2022-08-21T09:44:34;3.22;;;1.48;;
17424;SDS011;8830;50.978;5.058;2022-08-21T09:47:10;3.20;;;1.17;;
17424;SDS011;8830;50.978;5.058;2022-08-21T09:49:45;3.20;;;1.35;;
17424;SDS011;8830;50.978;5.058;2022-08-21T09:52:16;3.13;;;1.10;;
17424;SDS011;8830;50.978;5.058;2022-08-21T09:54:50;3.33;;;1.23;;
17424;SDS011;8830;50.978;5.058;2022-08-21T09:57:23;3.25;;;1.27;;
17424;SDS011;8830;50.978;5.058;2022-08-21T10:00:18;2.95;;;1.20;;
17424;SDS011;8830;50.978;5.058;2022-08-21T10:02:50;5.78;;;1.77;;
17424;SDS011;8830;50.978;5.058;2022-08-21T10:07:51;6.55;;;1.50;;
17424;SDS011;8830;50.978;5.058;2022-08-21T10:13:08;2.72;;;1.20;;
17424;SDS011;8830;50.978;5.058;2022-08-21T10:15:46;4.95;;;1.45;;
17424;SDS011;8830;50.978;5.058;2022-08-21T10:18:33;3.38;;;1.15;;
17424;SDS011;8830;50.978;5.058;2022-08-21T10:21:08;6.55;;;1.42;;
17424;SDS011;8830;50.978;5.058;2022-08-21T10:26:23;4.80;;;1.60;;
17424;SDS011;8830;50.978;5.058;2022-08-21T10:29:08;2.30;;;1.50;;
17424;SDS011;8830;50.978;5.058;2022-08-21T10:31:50;4.00;;;1.58;;
17424;SDS011;8830;50.978;5.058;2022-08-21T10:34:31;7.28;;;1.40;;
17424;SDS011;8830;50.978;5.058;2022-08-21T10:37:14;6.53;;;1.55;;
17424;SDS011;8830;50.978;5.058;2022-08-21T10:39:50;3.17;;;1.38;;
17424;SDS011;8830;50.978;5.058;2022-08-21T10:42:35;3.92;;;1.30;;
17424;SDS011;8830;50.978;5.058;2022-08-21T10:45:26;3.83;;;1.65;;
17424;SDS011;8830;50.978;5.058;2022-08-21T10:48:07;4.57;;;1.63;;
17424;SDS011;8830;50.978;5.058;2022-08-21T10:50:48;3.70;;;1.52;;
17424;SDS011;8830;50.978;5.058;2022-08-21T10:56:10;5.35;;;1.55;;
17424;SDS011;8830;50.978;5.058;2022-08-21T10:58:51;5.10;;;1.88;;
17424;SDS011;8830;50.978;5.058;2022-08-21T11:01:37;5.82;;;1.55;;
17424;SDS011;8830;50.978;5.058;2022-08-21T11:04:16;3.80;;;1.67;;
17424;SDS011;8830;50.978;5.058;2022-08-21T11:06:49;4.82;;;1.73;;
17424;SDS011;8830;50.978;5.058;2022-08-21T11:09:25;4.65;;;1.60;;
17424;SDS011;8830;50.978;5.058;2022-08-21T11:11:56;4.60;;;1.80;;
17424;SDS011;8830;50.978;5.058;2022-08-21T11:14:30;6.68;;;1.85;;
17424;SDS011;8830;50.978;5.058;2022-08-21T11:19:48;7.38;;;2.00;;
17424;SDS011;8830;50.978;5.058;2022-08-21T11:22:22;6.88;;;1.90;;
17424;SDS011;8830;50.978;5.058;2022-08-21T11:24:56;5.78;;;1.75;;
17424;SDS011;8830;50.978;5.058;2022-08-21T11:27:28;3.58;;;1.50;;
17424;SDS011;8830;50.978;5.058;2022-08-21T11:30:05;4.28;;;1.88;;
17424;SDS011;8830;50.978;5.058;2022-08-21T11:35:42;6.47;;;1.38;;
17424;SDS011;8830;50.978;5.058;2022-08-21T11:38:27;4.68;;;1.70;;
17424;SDS011;8830;50.978;5.058;2022-08-21T11:41:11;7.10;;;1.70;;
17424;SDS011;8830;50.978;5.058;2022-08-21T11:46:39;3.53;;;1.77;;
17424;SDS011;8830;50.978;5.058;2022-08-21T11:54:52;5.53;;;1.80;;
17424;SDS011;8830;50.978;5.058;2022-08-21T11:57:29;5.00;;;1.27;;
17424;SDS011;8830;50.978;5.058;2022-08-21T12:00:06;3.67;;;1.40;;
17424;SDS011;8830;50.978;5.058;2022-08-21T12:02:42;4.13;;;1.60;;
17424;SDS011;8830;50.978;5.058;2022-08-21T12:05:22;3.97;;;1.50;;
17424;SDS011;8830;50.978;5.058;2022-08-21T12:08:06;7.18;;;2.00;;
17424;SDS011;8830;50.978;5.058;2022-08-21T12:13:11;5.70;;;2.15;;
17424;SDS011;8830;50.978;5.058;2022-08-21T12:15:50;7.00;;;1.88;;
17424;SDS011;8830;50.978;5.058;2022-08-21T12:18:22;8.98;;;1.70;;
17424;SDS011;8830;50.978;5.058;2022-08-21T12:21:04;8.18;;;1.73;;
17424;SDS011;8830;50.978;5.058;2022-08-21T12:23:59;3.72;;;1.30;;
17424;SDS011;8830;50.978;5.058;2022-08-21T12:26:31;4.72;;;1.30;;
17424;SDS011;8830;50.978;5.058;2022-08-21T12:29:05;4.15;;;1.50;;
17424;SDS011;8830;50.978;5.058;2022-08-21T12:31:47;3.60;;;1.70;;
17424;SDS011;8830;50.978;5.058;2022-08-21T12:34:18;4.68;;;1.73;;
17424;SDS011;8830;50.978;5.058;2022-08-21T12:37:00;3.50;;;1.30;;
17424;SDS011;8830;50.978;5.058;2022-08-21T12:39:33;2.42;;;1.27;;
17424;SDS011;8830;50.978;5.058;2022-08-21T12:42:06;7.93;;;1.88;;
17424;SDS011;8830;50.978;5.058;2022-08-21T12:44:44;8.02;;;1.92;;
17424;SDS011;8830;50.978;5.058;2022-08-21T12:47:29;7.05;;;1.73;;
17424;SDS011;8830;50.978;5.058;2022-08-21T12:50:03;4.03;;;1.90;;
17424;SDS011;8830;50.978;5.058;2022-08-21T12:57:55;5.30;;;1.65;;
17424;SDS011;8830;50.978;5.058;2022-08-21T13:00:23;2.97;;;1.48;;
17424;SDS011;8830;50.978;5.058;2022-08-21T13:02:57;5.82;;;1.63;;
17424;SDS011;8830;50.978;5.058;2022-08-21T13:05:32;6.57;;;1.80;;
17424;SDS011;8830;50.978;5.058;2022-08-21T13:08:03;5.03;;;1.73;;
17424;SDS011;8830;50.978;5.058;2022-08-21T13:10:36;3.95;;;1.10;;
17424;SDS011;8830;50.978;5.058;2022-08-21T13:13:05;4.95;;;1.35;;
17424;SDS011;8830;50.978;5.058;2022-08-21T13:15:37;6.20;;;1.52;;
17424;SDS011;8830;50.978;5.058;2022-08-21T13:18:19;9.00;;;1.73;;
17424;SDS011;8830;50.978;5.058;2022-08-21T13:20:51;7.63;;;1.75;;
17424;SDS011;8830;50.978;5.058;2022-08-21T13:23:34;6.75;;;1.42;;
17424;SDS011;8830;50.978;5.058;2022-08-21T13:26:13;4.25;;;1.40;;
17424;SDS011;8830;50.978;5.058;2022-08-21T13:28:43;4.85;;;1.58;;
17424;SDS011;8830;50.978;5.058;2022-08-21T13:31:15;4.68;;;1.60;;
17424;SDS011;8830;50.978;5.058;2022-08-21T13:33:46;4.75;;;1.65;;
17424;SDS011;8830;50.978;5.058;2022-08-21T13:36:17;5.00;;;1.65;;
17424;SDS011;8830;50.978;5.058;2022-08-21T13:38:50;3.50;;;1.13;;
17424;SDS011;8830;50.978;5.058;2022-08-21T13:41:26;4.80;;;1.52;;
17424;SDS011;8830;50.978;5.058;2022-08-21T13:44:00;4.38;;;2.03;;
17424;SDS011;8830;50.978;5.058;2022-08-21T13:46:36;18.15;;;2.08;;
17424;SDS011;8830;50.978;5.058;2022-08-21T13:49:06;4.03;;;1.88;;
17424;SDS011;8830;50.978;5.058;2022-08-21T13:51:36;3.00;;;1.70;;
17424;SDS011;8830;50.978;5.058;2022-08-21T13:54:13;5.05;;;1.60;;
17424;SDS011;8830;50.978;5.058;2022-08-21T13:56:46;5.03;;;1.45;;
17424;SDS011;8830;50.978;5.058;2022-08-21T13:59:22;4.32;;;1.60;;
17424;SDS011;8830;50.978;5.058;2022-08-21T14:01:57;7.22;;;1.88;;
17424;SDS011;8830;50.978;5.058;2022-08-21T14:04:32;6.40;;;2.03;;
17424;SDS011;8830;50.978;5.058;2022-08-21T14:07:02;4.43;;;1.45;;
17424;SDS011;8830;50.978;5.058;2022-08-21T14:09:41;5.45;;;1.98;;
17424;SDS011;8830;50.978;5.058;2022-08-21T14:12:14;7.72;;;2.05;;
17424;SDS011;8830;50.978;5.058;2022-08-21T14:14:44;3.60;;;1.52;;
17424;SDS011;8830;50.978;5.058;2022-08-21T14:17:25;4.15;;;1.67;;
17424;SDS011;8830;50.978;5.058;2022-08-21T14:19:55;5.65;;;1.83;;
17424;SDS011;8830;50.978;5.058;2022-08-21T14:22:27;7.72;;;1.95;;
17424;SDS011;8830;50.978;5.058;2022-08-21T14:25:03;4.93;;;1.65;;
17424;SDS011;8830;50.978;5.058;2022-08-21T14:27:51;4.05;;;1.38;;
17424;SDS011;8830;50.978;5.058;2022-08-21T14:30:28;6.85;;;2.08;;
17424;SDS011;8830;50.978;5.058;2022-08-21T14:32:59;5.60;;;1.55;;
17424;SDS011;8830;50.978;5.058;2022-08-21T14:35:28;2.55;;;1.15;;
17424;SDS011;8830;50.978;5.058;2022-08-21T14:37:58;3.22;;;1.15;;
17424;SDS011;8830;50.978;5.058;2022-08-21T14:40:28;7.10;;;1.83;;
17424;SDS011;8830;50.978;5.058;2022-08-21T14:43:06;5.18;;;1.80;;
17424;SDS011;8830;50.978;5.058;2022-08-21T14:45:37;5.88;;;1.63;;
17424;SDS011;8830;50.978;5.058;2022-08-21T14:48:11;4.18;;;1.70;;
17424;SDS011;8830;50.978;5.058;2022-08-21T14:50:41;6.43;;;2.20;;
17424;SDS011;8830;50.978;5.058;2022-08-21T14:53:16;5.18;;;1.65;;
17424;SDS011;8830;50.978;5.058;2022-08-21T14:55:49;7.20;;;2.00;;
17424;SDS011;8830;50.978;5.058;2022-08-21T14:58:40;4.18;;;1.67;;
17424;SDS011;8830;50.978;5.058;2022-08-21T15:01:17;7.18;;;1.60;;
17424;SDS011;8830;50.978;5.058;2022-08-21T15:03:51;4.03;;;1.60;;
17424;SDS011;8830;50.978;5.058;2022-08-21T15:06:24;5.22;;;1.58;;
17424;SDS011;8830;50.978;5.058;2022-08-21T15:08:59;4.03;;;1.90;;
17424;SDS011;8830;50.978;5.058;2022-08-21T15:11:29;5.13;;;1.50;;
17424;SDS011;8830;50.978;5.058;2022-08-21T15:14:05;5.53;;;2.20;;
17424;SDS011;8830;50.978;5.058;2022-08-21T15:16:38;5.53;;;1.83;;
17424;SDS011;8830;50.978;5.058;2022-08-21T15:19:14;7.13;;;2.28;;
17424;SDS011;8830;50.978;5.058;2022-08-21T15:21:42;3.35;;;1.63;;
17424;SDS011;8830;50.978;5.058;2022-08-21T15:24:11;8.02;;;1.80;;
17424;SDS011;8830;50.978;5.058;2022-08-21T15:29:16;5.95;;;2.05;;
17424;SDS011;8830;50.978;5.058;2022-08-21T15:31:51;4.95;;;1.90;;
17424;SDS011;8830;50.978;5.058;2022-08-21T15:34:22;7.65;;;2.33;;
17424;SDS011;8830;50.978;5.058;2022-08-21T15:36:53;7.20;;;2.15;;
17424;SDS011;8830;50.978;5.058;2022-08-21T15:39:25;4.75;;;2.28;;
17424;SDS011;8830;50.978;5.058;2022-08-21T15:41:53;6.78;;;1.70;;
17424;SDS011;8830;50.978;5.058;2022-08-21T15:44:23;5.88;;;1.80;;
17424;SDS011;8830;50.978;5.058;2022-08-21T15:47:03;6.43;;;1.98;;
17424;SDS011;8830;50.978;5.058;2022-08-21T15:49:33;6.32;;;1.70;;
17424;SDS011;8830;50.978;5.058;2022-08-21T15:52:01;4.45;;;1.55;;
17424;SDS011;8830;50.978;5.058;2022-08-21T15:54:30;5.88;;;1.77;;
17424;SDS011;8830;50.978;5.058;2022-08-21T15:56:59;4.57;;;1.80;;
17424;SDS011;8830;50.978;5.058;2022-08-21T15:59:31;10.43;;;2.85;;
17424;SDS011;8830;50.978;5.058;2022-08-21T16:02:08;14.07;;;2.72;;
17424;SDS011;8830;50.978;5.058;2022-08-21T16:04:43;12.35;;;2.22;;
17424;SDS011;8830;50.978;5.058;2022-08-21T16:07:14;14.82;;;2.70;;
17424;SDS011;8830;50.978;5.058;2022-08-21T16:09:43;20.17;;;2.78;;
17424;SDS011;8830;50.978;5.058;2022-08-21T16:12:15;7.35;;;2.75;;
17424;SDS011;8830;50.978;5.058;2022-08-21T16:14:50;5.70;;;1.60;;
17424;SDS011;8830;50.978;5.058;2022-08-21T16:17:20;6.13;;;2.90;;
17424;SDS011;8830;50.978;5.058;2022-08-21T16:19:55;5.38;;;2.60;;
17424;SDS011;8830;50.978;5.058;2022-08-21T16:22:24;5.70;;;2.90;;
17424;SDS011;8830;50.978;5.058;2022-08-21T16:24:52;6.13;;;3.53;;
17424;SDS011;8830;50.978;5.058;2022-08-21T16:30:00;4.20;;;2.50;;
17424;SDS011;8830;50.978;5.058;2022-08-21T16:32:33;4.63;;;1.77;;
17424;SDS011;8830;50.978;5.058;2022-08-21T16:35:02;4.50;;;1.65;;
17424;SDS011;8830;50.978;5.058;2022-08-21T16:37:43;6.85;;;1.80;;
17424;SDS011;8830;50.978;5.058;2022-08-21T16:40:11;4.45;;;2.55;;
17424;SDS011;8830;50.978;5.058;2022-08-21T16:42:41;6.95;;;4.85;;
17424;SDS011;8830;50.978;5.058;2022-08-21T16:45:18;8.55;;;4.40;;
17424;SDS011;8830;50.978;5.058;2022-08-21T16:47:55;6.95;;;3.33;;
17424;SDS011;8830;50.978;5.058;2022-08-21T16:50:24;6.72;;;2.38;;
17424;SDS011;8830;50.978;5.058;2022-08-21T16:52:54;5.68;;;2.10;;
17424;SDS011;8830;50.978;5.058;2022-08-21T16:57:57;5.22;;;2.03;;
17424;SDS011;8830;50.978;5.058;2022-08-21T17:00:28;4.35;;;1.65;;
17424;SDS011;8830;50.978;5.058;2022-08-21T17:02:59;5.75;;;2.45;;
17424;SDS011;8830;50.978;5.058;2022-08-21T17:05:32;6.45;;;2.00;;
17424;SDS011;8830;50.978;5.058;2022-08-21T17:08:12;3.63;;;1.80;;
17424;SDS011;8830;50.978;5.058;2022-08-21T17:10:42;4.95;;;1.85;;
17424;SDS011;8830;50.978;5.058;2022-08-21T17:13:32;6.32;;;1.65;;
17424;SDS011;8830;50.978;5.058;2022-08-21T17:21:23;4.78;;;2.10;;
17424;SDS011;8830;50.978;5.058;2022-08-21T17:23:52;8.35;;;1.50;;
17424;SDS011;8830;50.978;5.058;2022-08-21T17:26:25;6.05;;;1.75;;
17424;SDS011;8830;50.978;5.058;2022-08-21T17:28:58;6.38;;;2.45;;
17424;SDS011;8830;50.978;5.058;2022-08-21T17:31:28;5.78;;;1.80;;
17424;SDS011;8830;50.978;5.058;2022-08-21T17:34:07;5.95;;;2.30;;
17424;SDS011;8830;50.978;5.058;2022-08-21T17:39:43;3.97;;;1.83;;
17424;SDS011;8830;50.978;5.058;2022-08-21T17:42:14;4.25;;;1.65;;
17424;SDS011;8830;50.978;5.058;2022-08-21T17:44:56;5.70;;;1.67;;
17424;SDS011;8830;50.978;5.058;2022-08-21T17:47:25;4.93;;;1.90;;
17424;SDS011;8830;50.978;5.058;2022-08-21T17:52:24;6.40;;;2.60;;
17424;SDS011;8830;50.978;5.058;2022-08-21T17:57:43;8.27;;;2.15;;
17424;SDS011;8830;50.978;5.058;2022-08-21T18:00:20;6.22;;;2.22;;
17424;SDS011;8830;50.978;5.058;2022-08-21T18:02:58;5.90;;;2.03;;
17424;SDS011;8830;50.978;5.058;2022-08-21T18:05:43;4.00;;;2.10;;
17424;SDS011;8830;50.978;5.058;2022-08-21T18:08:25;7.82;;;2.45;;
17424;SDS011;8830;50.978;5.058;2022-08-21T18:11:06;6.05;;;2.10;;
17424;SDS011;8830;50.978;5.058;2022-08-21T18:13:43;8.50;;;2.10;;
17424;SDS011;8830;50.978;5.058;2022-08-21T18:16:13;3.83;;;1.95;;
17424;SDS011;8830;50.978;5.058;2022-08-21T18:21:58;5.70;;;1.83;;
17424;SDS011;8830;50.978;5.058;2022-08-21T18:24:47;3.95;;;1.85;;
17424;SDS011;8830;50.978;5.058;2022-08-21T18:51:34;4.65;;;2.10;;
17424;SDS011;8830;50.978;5.058;2022-08-21T18:54:06;11.63;;;2.35;;
17424;SDS011;8830;50.978;5.058;2022-08-21T18:57:00;6.80;;;2.03;;
17424;SDS011;8830;50.978;5.058;2022-08-21T18:59:51;4.82;;;2.28;;
17424;SDS011;8830;50.978;5.058;2022-08-21T19:02:34;5.03;;;2.47;;
17424;SDS011;8830;50.978;5.058;2022-08-21T19:05:31;9.52;;;2.10;;
17424;SDS011;8830;50.978;5.058;2022-08-21T19:08:11;7.47;;;2.53;;
17424;SDS011;8830;50.978;5.058;2022-08-21T19:10:42;5.70;;;1.90;;
17424;SDS011;8830;50.978;5.058;2022-08-21T19:13:23;10.38;;;2.58;;
17424;SDS011;8830;50.978;5.058;2022-08-21T19:16:30;6.13;;;2.42;;
17424;SDS011;8830;50.978;5.058;2022-08-21T19:19:11;3.78;;;2.00;;
17424;SDS011;8830;50.978;5.058;2022-08-21T19:21:54;6.90;;;2.75;;
17424;SDS011;8830;50.978;5.058;2022-08-21T19:24:33;5.05;;;2.08;;
17424;SDS011;8830;50.978;5.058;2022-08-21T19:27:01;4.97;;;2.28;;
17424;SDS011;8830;50.978;5.058;2022-08-21T19:29:29;12.60;;;2.72;;
17424;SDS011;8830;50.978;5.058;2022-08-21T19:31:58;6.93;;;2.47;;
17424;SDS011;8830;50.978;5.058;2022-08-21T19:34:26;6.78;;;2.50;;
17424;SDS011;8830;50.978;5.058;2022-08-21T19:37:11;3.88;;;1.52;;
17424;SDS011;8830;50.978;5.058;2022-08-21T19:39:41;6.63;;;2.17;;
17424;SDS011;8830;50.978;5.058;2022-08-21T19:42:09;4.70;;;2.10;;
17424;SDS011;8830;50.978;5.058;2022-08-21T19:44:51;6.63;;;2.20;;
17424;SDS011;8830;50.978;5.058;2022-08-21T19:47:29;5.97;;;2.50;;